This is the latest recevied weather packets stored in our database for station/object HK6REC-23. If no packets are shown the sender has not sent any weather packets the latest 1 day(s).
| Time | Temp. | Humidity | Pressure | Rain* | Wind** | Luminosity | Snow |
|---|---|---|---|---|---|---|---|
| 1778085738 | 23.33° C | 64% | 1012 hPa | 0 mm | - | - | - |
| 1778085137 | 21.67° C | 69% | 1012 hPa | 0 mm | - | - | - |
| 1778084536 | 21.67° C | 69% | 1014 hPa | 0 mm | - | - | - |
| 1778083935 | 21.11° C | 69% | 1014 hPa | 0 mm | - | - | - |
| 1778082733 | 21.11° C | 69% | 1013 hPa | 0 mm | - | - | - |
| 1778082132 | 22.78° C | 69% | 1014 hPa | 0 mm | - | - | - |
| 1778081531 | 19.44° C | 80% | 1014 hPa | 0 mm | - | - | - |
| 1778080930 | 21.11° C | 80% | 1015 hPa | 0 mm | - | - | - |
| 1778074920 | 18.33° C | 86% | 1016 hPa | 0 mm | - | - | - |
| 1778070713 | 12.78° C | 95% | 1016 hPa | 0 mm | - | - | - |
| 1778067708 | 15.56° C | 95% | 1016 hPa | 0 mm | - | - | - |
| 1778061097 | 11.11° C | 95% | 1015 hPa | 0 mm | - | - | - |
| 1778059895 | 12.22° C | 95% | 1015 hPa | 0 mm | - | - | - |
| 1778059294 | 12.22° C | 95% | 1014 hPa | 0 mm | - | - | - |
| 1778056890 | 12.22° C | 93% | 1014 hPa | 0 mm | - | - | - |
| 1778052683 | 13.33° C | 94% | 1015 hPa | 0 mm | - | - | - |
| 1778052082 | 13.33° C | 94% | 1015 hPa | 0 mm | - | - | - |
| 1778051481 | 13.33° C | 94% | 1015 hPa | 0 mm | - | - | - |
| 1778050279 | 13.89° C | 95% | 1015 hPa | 0 mm | - | - | - |
| 1778049077 | 12.22° C | 94% | 1015 hPa | 0 mm | - | - | - |
| 1778047875 | 12.22° C | 94% | 1015 hPa | 0 mm | - | - | - |
| 1778044870 | 14.44° C | 91% | 1016 hPa | 0 mm | - | - | - |
| 1778044269 | 16.11° C | 91% | 1016 hPa | 0 mm | - | - | - |
| 1778043668 | 12.78° C | 93% | 1015 hPa | 0 mm | - | - | - |
| 1778037659 | 15° C | 90% | 1016 hPa | 0 mm | - | - | - |
* Rain latest hour (hover to see other rain measurements)
** Current wind speed in m/s (hover to see current wind gust speed)